Beardsley, Minnesota
Current Conditions -  °F | °C
As of 8:56 PM on Friday 19 Dec 2014 (Local Time) from KETH Reporting Station
Haze Haze  
Wind Chill: 21°   Ceiling: 1500
Heat Index: 28°   Visibility: 5mi
Dew Point: 27°   Wind: 7mph
Humidity: 93%   Direction: 150°SSE
Pressure: 30.07"   Gusts: NA
Location:  45.56°N, 96.71°W
Report Text: KETH 200256Z AUTO 15006KT 5SM BR BKN015 M02/M03 A3007 RMK AO2
Loading
Personal Weather Stations






























Interactive Weather Map New forecast layout! Learn more

10-Day Weather Forecast

Advertisements
Track Severe Weather on mobile